Salt Lake City, Utah
Traffic Map
Current Weather Conditions
Salt Lake City, Utah
Overcast Moderate Fog
Overcast
-2°
Feels Like: -2°
Wind Chill: -2° Ceiling: 400
Heat Index: -2° Visibility: 0.5mi
Dew Point: -3° Wind: 3mph
Humidity: 92% Direction: 360° (N)
Pressure: 30.47in Gusts: 0mph
Raw Report DataKSLC 111254Z 36003KT 1/2SM R34R/P6000FT FZFG OVC004 M02/M03 A3047 RMK AO2 SLP337 T10171028
Traffic Incident Summary
Active as of:
Severity:
Category:
InformationThere was an issue retrieving the traffic information for this location. Please try a different location or try again shortly.
Advertisements
Track Severe Weather on mobile